x

Buoy M01 - Jordan Basin (44037) Wave Buoy

8:04pm - Sat 20th Sep 2014 All times are EDT. -4 hours from GMT.

  • Sig Wave height 4.3ft
  • Peak Period 5s
  • Wind
    11mph, 13mph gusts
  • Sea Temp 58°f
  • Air Temp 60°f
  • Sea Pressure 1021.9mb
  • Buoy M01 - Jordan Basin
  • Buoy M01 - Jordan Basin

More Historic Weather Station data

Upgrade to MSW Pro to gain access to the past 30 days of data for over 8000 Wavebouys and Weather Stations around the globe.

Join Pro

Comparision Forecast

View Surf forecast
   
Sat 09/20 8:04pm 4.5ft 5s 11 13 mph 1021.9mb 58f 60f
7:04pm 5ft 5s  -  mph - 58f -
6:04pm 5ft 5s 18 22 mph 1021.9mb 58f 60f
5:04pm  -   -  18 20 mph 1022.7mb - 60f
4:04pm  -   -  18 25 mph 1023.1mb - 59f
3:04pm 5ft 5s 20 25 mph 1023.5mb 57f 59f
2:04pm 5ft 5s 20 22 mph 1024.2mb 58f 58f
12:04pm 3.5ft 5s 20 25 mph 1026.1mb 58f 57f
10:04am 3.5ft 5s 20 22 mph 1027.2mb 58f 56f
9:04am 3ft 4s 18 22 mph 1027.9mb 58f 56f
8:04am 2.5ft 4s 18 22 mph 1028mb 58f 55f
7:04am 2.5ft 4s 18 22 mph 1028.3mb 58f 55f
6:04am 3ft 8s 16 20 mph 1028.8mb 58f 54f
5:04am 2ft 3s 16 18 mph 1029.1mb 58f 53f
4:04am 1.6ft 3s 16 20 mph 1028.9mb 58f 53f
3:04am 1.3ft 3s 11 16 mph 1029.6mb 58f 53f
2:04am 2.5ft 11s 11 13 mph 1029.8mb 58f 52f
1:04am 1ft 5s 11 13 mph 1029.9mb 58f 52f
12:04am 2ft 8s 9 11 mph 1030.1mb 58f 52f
Fri 09/19 11:04pm 2.5ft 11s 7
mph
1030.4mb 59f 52f
10:04pm 2ft 11s 4 7 mph 1030.1mb 59f 51f
9:04pm 1.6ft 5s 4 7 mph 1030.3mb 59f 51f
8:04pm 2.5ft 8s 4 7 mph 1029.9mb 59f 51f
7:04pm 2.5ft 8s 4 7 mph 1029.4mb 58f 51f
6:04pm 3.5ft 8s 4 9 mph 1028.9mb 58f 52f
5:04pm 3.5ft 8s 9 11 mph 1028.8mb 58f 52f
4:04pm 4ft 5s 11 13 mph 1028.7mb 59f 51f
3:04pm 4.5ft 5s 11 16 mph 1028.8mb 59f 50f
2:04pm 4.5ft 5s 13 16 mph 1028.5mb 58f 50f
1:04pm 5ft 5s 13 18 mph 1028.3mb 58f 49f
12:04pm 5ft 6s 16 20 mph 1027.9mb 59f 49f
11:04am 5ft 5s 16 20 mph 1027.5mb 59f 49f
10:04am 5.5ft 5s 18 22 mph 1027.2mb 59f 49f
9:04am 5.5ft 6s 20 25 mph 1026.4mb 59f 49f
8:04am 6ft 6s 20 27 mph 1025.5mb 58f 49f
7:04am 6ft 6s 22 25 mph 1024.5mb 59f 50f
6:04am 5ft 5s 20 27 mph 1023.6mb 59f 50f
5:04am 5ft 5s 18 22 mph 1022.5mb 59f 50f
4:04am 5ft 5s 18 25 mph 1021.5mb 59f 51f
3:04am 5ft 5s 20 25 mph 1020.6mb 59f 52f
2:04am 5ft 5s 20 25 mph 1020.1mb 59f 53f
1:04am 5ft 5s 22 27 mph 1019.4mb 59f 54f
Thu 09/18 11:04pm 4ft 4s 25 27 mph 1018mb 59f 57f
9:04pm 3.5ft 11s 18 20 mph 1016.5mb 59f 60f
8:04pm 4ft 11s 9 11 mph 1015.7mb 60f 60f
7:04pm 3.5ft 11s 9 13 mph 1014.7mb 60f 60f
6:04pm 1.3ft 4s 13 16 mph 1014.2mb 60f 60f
5:04pm 3.5ft 11s 7
mph
1013.4mb 60f 60f
4:04pm 3ft 11s 11 13 mph 1013.2mb 61f 62f
3:04pm 3.5ft 11s 9 11 mph 1013.3mb 61f 63f
12:04pm  -   -  9 13 mph 1012.7mb 60f 60f
11:04am 6.5ft 16s 4
mph
1012.8mb 60f 63f
10:04am 5.5ft 11s 2 4 mph 1012.8mb 60f 63f
9:04am 6ft 11s 4 7 mph 1012.6mb 60f 62f
8:04am  -   -  2 4 mph 1012.4mb 60f 62f
6:04am 6ft 16s 7
mph
1012mb 60f 61f
5:04am 5.5ft 16s 7
mph
1011.6mb 60f 61f
4:04am 6ft 16s 7 9 mph 1011.6mb 60f 62f
3:04am  -   -  11
mph
1011.8mb 60f 62f
2:04am  -   -  13 16 mph 1012.4mb 60f 62f
1:04am 8ft 16s 13
mph
1012.9mb 60f 62f
12:04am  -   -  13 18 mph 1013.1mb 60f 62f
Wed 09/17 11:04pm  -   -  11 16 mph 1013.7mb 59f 62f
10:04pm 7ft 16s 9 11 mph 1014mb 60f 62f
9:04pm  -   -  11 13 mph 1014.3mb 60f 62f
8:04pm  -   -  11 13 mph 1014.3mb 60f 62f
6:04pm 7ft 16s 9
mph
1013.8mb 59f 62f
5:04pm 5ft 16s 9 11 mph 1013.9mb 61f 63f
4:04pm 7ft 16s 4 7 mph 1013.8mb 61f 63f
3:04pm 4ft 16s 4 7 mph 1013.9mb 62f 62f
2:04pm  -   -  4 7 mph 1014.3mb 62f 62f
1:04pm 3.5ft 16s 4 7 mph 1014.8mb 61f 61f
12:04pm 5ft 16s 4 7 mph 1015mb 60f 60f
10:04am 1ft 3s 4 7 mph 1015.2mb 60f 61f
9:04am 1ft 4s 2 4 mph 1014.9mb 60f 59f
8:04am 1ft 4s 2 4 mph 1014.3mb 59f 60f
7:04am 1.3ft 3s 4 7 mph 1014.3mb 59f 59f
6:04am 1.3ft 4s 7 9 mph 1013.8mb 59f 58f
5:04am 1.6ft 4s 9 11 mph 1013.4mb 60f 59f
4:04am 1.6ft 3s 11
mph
1013.2mb 60f 59f
3:04am 1.6ft 4s 13 16 mph 1013.1mb 61f 59f
2:04am 1.6ft 3s 13 16 mph 1013.4mb 61f 59f